Vancouver, WA

9:36 AM PST on January 29, 2015 (GMT -0800)
Columbia Tech Center | Change Station
CLOSE
Current Station
Personal Weather Station
Location: Vancouver, WA
Elevation: 276 ft
Nearby Weather Stations

Elev 276 ft 45.62 °N, 122.48 °W | Updated 2 minutes ago

Mostly Cloudy
Mostly Cloudy
46.8 °F
Feels Like 47 °F
N
2.0
Wind Variable Wind from SSW
Gusts 3.0 mph

Today
High -- | Low -- °F
--% Chance of Precip.
Yesterday
High -- | Low -- °F
Precip. -- in
7:34 AM 5:11 PM
Waxing Gibbous, 76% visible
Pressure 30.33 in
Visibility 2.0 miles
Clouds Few 300 ft
Few 1300 ft
Mostly Cloudy 15000 ft
Windchill 47 °F
Dew Point 42 °F
Humidity 84%
Rainfall 0.00 in
Snow Depth Not available.
UV 0 out of 12
Pollen 3.00 out of 12
Air Quality Not available.
Flu Activity Not available.
SPECI KPDX 291718Z 00000KT 2SM BR FEW003 FEW013 BKN150 06/06 A3033 RMK AO2 SFC VIS 6 T00610061

More Conditions Fewer Conditions

Pressure 30.33 in
Visibility 2.0 miles
Clouds Few 300 ft
Few 1300 ft
Mostly Cloudy 15000 ft
Windchill 47 °F
Dew Point 42 °F
Humidity 84%
Rainfall 0.00 in
Snow Depth Not available.
UV 0 out of 12
Pollen 3.00 out of 12
Air Quality Not available.
Flu Activity Not available.
SPECI KPDX 291718Z 00000KT 2SM BR FEW003 FEW013 BKN150 06/06 A3033 RMK AO2 SFC VIS 6 T00610061

More Conditions Fewer Conditions

10-Day Weather Forecast

Almanac

Astronomy

Jan. 29, 2015 Rise Set
Actual Time
Civil Twilight
Nautical Twilight
Astronomical Twilight
Moon
Length of Visible Light
Length of Day
Tomorrow will be .
, % of the Moon is Illuminated

Today's Extremes

State Highs State Lows

Community

WunderPhotos

Upload Photos

1,791,484 photos uploaded!

WunderBlogs® & News

Nearby

Air Quality

  Air Quality AQ Index Pollutant
Not available.

Snow Depth

Station Depth Elevation

Earthquake Activity

City Distance Mag. Time & Date
Minimum magnitude displayed is 2.5.

Coastal Water Temperatures

Place Temperature

Nearby Weather Stations